createdAt,value
2022-11-05T00:02:03.372Z,50.75
2022-11-05T00:04:50.341Z,50.30
2022-11-05T00:07:42.003Z,50.43
2022-11-05T00:10:18.215Z,50.21
2022-11-05T00:13:05.571Z,50.33
2022-11-05T00:15:52.305Z,50.26
2022-11-05T00:18:20.732Z,50.05
2022-11-05T00:20:49.236Z,50.00
2022-11-05T00:23:36.251Z,49.92
2022-11-05T00:26:08.012Z,49.93
2022-11-05T00:28:36.375Z,49.78
2022-11-05T00:31:10.397Z,49.90
2022-11-05T00:33:40.813Z,49.79
2022-11-05T00:36:10.821Z,49.79
2022-11-05T00:38:39.216Z,49.63
2022-11-05T00:41:07.954Z,49.95
2022-11-05T00:43:54.995Z,50.21
2022-11-05T00:46:23.386Z,50.10
2022-11-05T00:49:10.153Z,49.89
2022-11-05T00:51:38.545Z,49.81
2022-11-05T00:54:06.954Z,49.92
2022-11-05T00:56:35.281Z,50.60
2022-11-05T00:59:03.744Z,51.20
2022-11-05T01:01:33.235Z,51.90
2022-11-05T01:04:01.701Z,52.12
2022-11-05T01:06:30.114Z,52.09
2022-11-05T01:08:58.475Z,51.84
2022-11-05T01:11:37.201Z,51.73
2022-11-05T01:14:11.369Z,51.96
2022-11-05T01:16:40.714Z,52.00
2022-11-05T01:19:10.509Z,52.28
2022-11-05T01:21:39.016Z,51.81
2022-11-05T01:24:07.730Z,52.16
2022-11-05T01:26:36.082Z,52.26
2022-11-05T01:29:04.525Z,52.58
2022-11-05T01:31:32.944Z,53.20
2022-11-05T01:34:01.728Z,52.95
2022-11-05T01:36:30.580Z,52.98
2022-11-05T01:38:59.081Z,52.47
2022-11-05T01:41:27.578Z,52.52
2022-11-05T01:44:01.337Z,52.49
2022-11-05T01:46:36.519Z,52.91
2022-11-05T01:49:18.877Z,52.92
2022-11-05T01:51:48.214Z,52.21
2022-11-05T01:54:21.895Z,52.53
2022-11-05T01:56:58.098Z,52.43
2022-11-05T01:59:29.514Z,52.28
2022-11-05T02:01:58.319Z,51.84
2022-11-05T02:04:36.382Z,51.78
2022-11-05T02:07:07.155Z,52.40
2022-11-05T02:10:00.395Z,52.84
2022-11-05T02:12:29.750Z,53.16
2022-11-05T02:14:58.600Z,53.32
2022-11-05T02:17:57.035Z,52.84
2022-11-05T02:20:55.786Z,53.68
2022-11-05T02:23:33.198Z,53.69
2022-11-05T02:26:23.563Z,53.27
2022-11-05T02:29:15.244Z,52.77
2022-11-05T02:32:09.085Z,53.22
2022-11-05T02:35:09.126Z,52.68
2022-11-05T02:37:45.637Z,53.12
2022-11-05T02:40:23.286Z,53.04
2022-11-05T02:43:15.947Z,53.45
2022-11-05T02:45:50.316Z,53.57
2022-11-05T02:48:37.412Z,53.75
2022-11-05T02:51:16.509Z,53.45
2022-11-05T02:53:53.605Z,53.26
2022-11-05T02:56:26.936Z,53.37
2022-11-05T02:58:55.286Z,53.09
2022-11-05T03:01:23.826Z,53.08
2022-11-05T03:03:57.612Z,52.69
2022-11-05T03:06:40.958Z,53.29
2022-11-05T03:09:24.657Z,52.94
2022-11-05T03:12:02.688Z,53.01
2022-11-05T03:14:48.149Z,53.39
2022-11-05T03:17:30.791Z,53.24
2022-11-05T03:20:25.600Z,53.47
2022-11-05T03:23:05.342Z,52.88
2022-11-05T03:25:39.120Z,52.62
2022-11-05T03:28:10.810Z,52.99
2022-11-05T03:30:41.931Z,52.78
2022-11-05T03:33:16.895Z,53.31
2022-11-05T03:35:52.074Z,52.95
2022-11-05T03:38:45.145Z,53.20
2022-11-05T03:41:30.927Z,52.90
2022-11-05T03:48:13.087Z,52.71
2022-11-05T03:51:16.493Z,53.13
2022-11-05T03:53:51.946Z,53.36
2022-11-05T03:56:59.613Z,53.18
2022-11-05T04:03:09.787Z,53.20
2022-11-05T04:05:44.520Z,53.59
2022-11-05T04:08:37.262Z,53.47
2022-11-05T04:11:24.629Z,53.71
2022-11-05T04:16:56.608Z,53.28
2022-11-05T04:19:43.518Z,53.24
2022-11-05T04:22:30.389Z,52.83
2022-11-05T04:24:58.781Z,52.93
2022-11-05T04:27:27.128Z,53.33
2022-11-05T04:30:14.321Z,53.70
2022-11-05T04:32:42.719Z,53.94
2022-11-05T04:35:11.191Z,54.01
2022-11-05T04:37:39.507Z,53.97
2022-11-05T04:40:08.346Z,53.76
2022-11-05T04:42:36.777Z,53.55
2022-11-05T04:45:05.626Z,53.12
2022-11-05T04:47:33.981Z,52.98
2022-11-05T04:50:02.337Z,53.09
2022-11-05T04:52:30.763Z,53.07
2022-11-05T04:54:59.102Z,53.87
2022-11-05T04:57:27.469Z,53.68
2022-11-05T04:59:55.845Z,53.50
2022-11-05T05:02:24.331Z,53.18
2022-11-05T05:04:52.816Z,52.92
2022-11-05T05:07:21.340Z,53.16
2022-11-05T05:09:49.925Z,53.26
2022-11-05T05:12:18.421Z,53.56
2022-11-05T05:14:49.045Z,53.44
2022-11-05T05:17:17.599Z,53.15
2022-11-05T05:20:04.712Z,53.07
2022-11-05T05:22:33.060Z,53.12
2022-11-05T05:25:01.750Z,52.96
2022-11-05T05:27:30.629Z,52.62
2022-11-05T05:29:59.921Z,52.58
2022-11-05T05:32:28.352Z,52.79
2022-11-05T05:34:56.679Z,53.04
2022-11-05T05:37:25.119Z,52.82
2022-11-05T05:39:53.618Z,52.74
2022-11-05T05:42:22.849Z,52.39
2022-11-05T05:44:51.372Z,52.86
2022-11-05T05:47:19.743Z,53.16
2022-11-05T05:49:48.113Z,53.25
2022-11-05T05:52:16.532Z,52.80
2022-11-05T05:54:44.984Z,52.90
2022-11-05T05:57:13.327Z,52.82
2022-11-05T05:59:41.693Z,52.49
2022-11-05T06:02:11.762Z,52.20
2022-11-05T06:04:40.238Z,52.36
2022-11-05T06:07:08.644Z,52.90
2022-11-05T06:09:36.990Z,52.65
2022-11-05T06:12:05.602Z,52.41
2022-11-05T06:14:33.928Z,52.97
2022-11-05T06:17:02.259Z,53.54
2022-11-05T06:19:30.621Z,53.09
2022-11-05T06:21:59.063Z,53.28
2022-11-05T06:24:27.402Z,52.76
2022-11-05T06:26:55.739Z,52.60
2022-11-05T06:29:24.214Z,52.24
2022-11-05T06:31:52.698Z,52.06
2022-11-05T06:34:21.154Z,52.07
2022-11-05T06:36:49.572Z,52.09
2022-11-05T06:39:17.997Z,51.82
2022-11-05T06:42:11.875Z,51.71
2022-11-05T06:44:35.770Z,51.82
2022-11-05T06:47:04.386Z,52.31
2022-11-05T06:49:32.750Z,52.23
2022-11-05T06:52:01.084Z,52.76
2022-11-05T06:54:30.425Z,53.15
2022-11-05T06:56:58.851Z,52.60
2022-11-05T06:59:27.228Z,52.87
2022-11-05T07:01:55.979Z,52.70
2022-11-05T07:04:24.513Z,52.69
2022-11-05T07:06:52.927Z,52.88
2022-11-05T07:09:21.523Z,52.61
2022-11-05T07:11:49.865Z,52.79
2022-11-05T07:14:19.332Z,52.54
2022-11-05T07:16:47.732Z,52.81
2022-11-05T07:19:16.217Z,52.88
2022-11-05T07:21:45.851Z,52.96
2022-11-05T07:24:15.471Z,52.83
2022-11-05T07:26:43.915Z,52.86
2022-11-05T07:29:12.364Z,52.48
2022-11-05T07:31:40.775Z,52.61
2022-11-05T07:34:09.154Z,52.77
2022-11-05T07:36:39.416Z,53.20
2022-11-05T07:39:07.869Z,52.90
2022-11-05T07:41:36.337Z,52.37
2022-11-05T07:44:04.767Z,52.88
2022-11-05T07:46:33.222Z,52.93
2022-11-05T07:49:01.675Z,52.95
2022-11-05T07:51:30.012Z,53.02
2022-11-05T07:53:58.498Z,53.03
2022-11-05T07:56:27.915Z,53.12
2022-11-05T07:58:56.255Z,53.27
2022-11-05T08:01:25.045Z,53.48
2022-11-05T08:03:53.553Z,52.99
2022-11-05T08:06:22.000Z,53.12
2022-11-05T08:08:50.530Z,52.87
2022-11-05T08:11:19.004Z,52.80
2022-11-05T08:13:47.518Z,52.96
2022-11-05T08:16:15.930Z,52.93
2022-11-05T08:18:44.647Z,52.64
2022-11-05T08:21:13.094Z,52.72
2022-11-05T08:23:42.862Z,53.41
2022-11-05T08:26:11.290Z,53.26
2022-11-05T08:28:39.792Z,52.71
2022-11-05T08:31:08.230Z,52.28
2022-11-05T08:33:36.758Z,52.51
2022-11-05T08:36:06.356Z,52.50
2022-11-05T08:38:34.807Z,53.12
2022-11-05T08:41:03.345Z,53.07
2022-11-05T08:43:31.702Z,52.68
2022-11-05T08:46:01.634Z,52.54
2022-11-05T08:48:30.003Z,52.71
2022-11-05T08:51:00.230Z,52.06
2022-11-05T08:53:28.727Z,51.92
2022-11-05T08:56:00.557Z,52.19
2022-11-05T08:58:29.158Z,51.99
2022-11-05T09:01:03.438Z,52.16
2022-11-05T09:03:33.152Z,52.31
2022-11-05T09:06:01.577Z,52.08
2022-11-05T09:08:29.998Z,51.70
2022-11-05T09:10:58.578Z,52.06
2022-11-05T09:13:27.499Z,52.27
2022-11-05T09:15:58.014Z,51.42
2022-11-05T09:18:26.537Z,51.81
2022-11-05T09:20:55.126Z,52.07
2022-11-05T09:23:23.721Z,51.43
2022-11-05T09:25:52.127Z,51.58
2022-11-05T09:28:22.710Z,51.17
2022-11-05T09:30:52.668Z,51.18
2022-11-05T09:33:24.119Z,50.63
2022-11-05T09:35:53.790Z,51.18
2022-11-05T09:38:22.373Z,51.14
2022-11-05T09:41:07.299Z,50.20
2022-11-05T09:43:50.312Z,50.78
2022-11-05T09:46:28.142Z,51.01
2022-11-05T09:49:12.244Z,50.14
2022-11-05T09:51:41.322Z,50.63
2022-11-05T09:54:12.941Z,50.77
2022-11-05T09:56:42.154Z,50.48
2022-11-05T09:59:24.398Z,50.22
2022-11-05T10:02:15.712Z,50.76
2022-11-05T10:04:48.139Z,50.11
2022-11-05T10:07:22.965Z,50.26
2022-11-05T10:10:01.221Z,50.10
2022-11-05T10:12:41.663Z,49.64
2022-11-05T10:15:24.955Z,49.71
2022-11-05T10:18:03.494Z,49.98
2022-11-05T10:20:38.968Z,49.92
2022-11-05T10:23:14.984Z,49.38
2022-11-05T10:25:47.187Z,50.13
2022-11-05T10:28:18.087Z,48.84
2022-11-05T10:30:50.348Z,49.41
2022-11-05T10:33:29.723Z,49.89
2022-11-05T10:36:03.258Z,49.56
2022-11-05T10:38:32.435Z,49.14
2022-11-05T10:41:30.035Z,49.14
2022-11-05T10:44:05.734Z,49.14
2022-11-05T10:47:06.840Z,48.88
2022-11-05T10:49:45.575Z,49.17
2022-11-05T10:52:24.001Z,48.91
2022-11-05T10:54:55.693Z,49.25
2022-11-05T10:57:36.508Z,48.84
2022-11-05T11:00:14.743Z,48.58
2022-11-05T11:02:43.631Z,49.29
2022-11-05T11:05:20.808Z,48.91
2022-11-05T11:08:12.584Z,48.96
2022-11-05T11:10:48.543Z,48.86
2022-11-05T11:13:49.994Z,49.27
2022-11-05T11:16:23.494Z,48.98
2022-11-05T11:18:59.249Z,48.83
2022-11-05T11:21:30.241Z,49.08
2022-11-05T11:24:04.748Z,49.22
2022-11-05T11:26:37.091Z,49.03
2022-11-05T11:29:40.530Z,48.99
2022-11-05T11:32:21.910Z,48.96
2022-11-05T11:34:53.976Z,48.47
2022-11-05T11:37:29.604Z,48.50
2022-11-05T11:40:04.105Z,48.59
2022-11-05T11:42:39.966Z,48.23
2022-11-05T11:45:19.238Z,48.08
2022-11-05T11:47:50.768Z,48.07
2022-11-05T11:50:41.917Z,48.16
2022-11-05T11:53:17.545Z,47.86
2022-11-05T11:55:54.892Z,47.94
2022-11-05T11:58:34.847Z,47.83
2022-11-05T12:01:09.190Z,47.13
2022-11-05T12:03:48.006Z,46.94
2022-11-05T12:06:51.672Z,46.24
2022-11-05T12:09:22.889Z,46.41
2022-11-05T12:12:02.861Z,46.25
2022-11-05T12:15:15.221Z,45.59
2022-11-05T12:17:57.957Z,46.61
2022-11-05T12:20:48.144Z,46.67
2022-11-05T12:23:35.648Z,46.64
2022-11-05T12:26:18.420Z,46.14
2022-11-05T12:29:24.888Z,45.47
2022-11-05T12:32:04.049Z,45.84
2022-11-05T12:34:44.638Z,46.01
2022-11-05T12:37:34.547Z,44.75
2022-11-05T12:40:10.029Z,44.90
2022-11-05T12:42:41.416Z,45.65
2022-11-05T12:45:33.323Z,45.67
2022-11-05T12:48:36.708Z,45.08
2022-11-05T12:51:19.774Z,45.74
2022-11-05T12:54:20.558Z,45.28
2022-11-05T12:56:53.506Z,46.00
2022-11-05T12:59:41.055Z,45.28
2022-11-05T13:02:24.910Z,45.92
2022-11-05T13:04:59.490Z,45.56
2022-11-05T13:07:33.217Z,45.84
2022-11-05T13:10:05.005Z,45.00
2022-11-05T13:12:38.071Z,45.13
2022-11-05T13:15:29.506Z,45.71
2022-11-05T13:18:00.706Z,45.76
2022-11-05T13:20:32.986Z,45.79
2022-11-05T13:23:20.742Z,44.43
2022-11-05T13:25:55.578Z,45.35
2022-11-05T13:28:24.024Z,45.46
2022-11-05T13:30:57.939Z,45.27
2022-11-05T13:33:39.982Z,45.20
2022-11-05T13:36:35.590Z,45.53
2022-11-05T13:39:12.973Z,44.62
2022-11-05T13:42:05.985Z,44.43
2022-11-05T13:44:43.940Z,44.25
2022-11-05T13:47:37.374Z,43.98
2022-11-05T13:50:41.353Z,43.80
2022-11-05T13:53:29.159Z,44.15
2022-11-05T13:56:20.560Z,44.29
2022-11-05T13:58:54.933Z,44.93
2022-11-05T14:01:44.876Z,44.35
2022-11-05T14:04:22.514Z,44.52
2022-11-05T14:06:51.160Z,44.65
2022-11-05T14:09:25.824Z,45.01
2022-11-05T14:11:57.937Z,45.51
2022-11-05T14:14:28.877Z,44.82
2022-11-05T14:17:09.170Z,44.79
2022-11-05T14:20:02.686Z,44.87
2022-11-05T14:22:31.154Z,45.01
2022-11-05T14:25:01.207Z,45.20
2022-11-05T14:27:29.500Z,45.52
2022-11-05T14:29:58.094Z,45.20
2022-11-05T14:32:42.305Z,44.75
2022-11-05T14:35:16.797Z,45.26
2022-11-05T14:37:59.165Z,44.75
2022-11-05T14:40:30.462Z,44.64
2022-11-05T14:43:05.789Z,45.07
2022-11-05T14:45:41.026Z,45.25
2022-11-05T14:48:51.472Z,44.92
2022-11-05T14:51:37.021Z,44.93
2022-11-05T14:54:27.855Z,45.71
2022-11-05T14:56:59.821Z,45.67
2022-11-05T14:59:28.311Z,45.37
2022-11-05T15:01:56.909Z,45.13
2022-11-05T15:04:32.924Z,45.48
2022-11-05T15:07:04.363Z,45.10
2022-11-05T15:09:46.799Z,45.43
2022-11-05T15:12:54.158Z,45.39
2022-11-05T15:15:30.180Z,45.26
2022-11-05T15:18:05.972Z,45.63
2022-11-05T15:20:46.882Z,45.19
2022-11-05T15:23:22.567Z,45.22
2022-11-05T15:26:09.817Z,45.67
2022-11-05T15:28:45.843Z,45.65
2022-11-05T15:31:14.153Z,45.75
2022-11-05T15:33:46.778Z,45.71
2022-11-05T15:36:27.363Z,45.56
2022-11-05T15:39:27.421Z,46.08
2022-11-05T15:41:46.738Z,46.18
2022-11-05T15:44:26.012Z,45.91
2022-11-05T15:47:21.071Z,45.76
2022-11-05T15:49:56.967Z,45.73
2022-11-05T15:52:33.642Z,46.04
2022-11-05T15:55:08.057Z,46.28
2022-11-05T15:57:40.106Z,45.92
2022-11-05T16:00:18.743Z,46.10
2022-11-05T16:02:59.643Z,46.13
2022-11-05T16:05:31.314Z,46.49
2022-11-05T16:08:01.211Z,46.51
2022-11-05T16:10:36.834Z,46.08
2022-11-05T16:13:27.752Z,46.67
2022-11-05T16:15:58.974Z,46.31
2022-11-05T16:18:36.001Z,46.20
2022-11-05T16:21:07.279Z,46.00
2022-11-05T16:23:52.883Z,46.57
2022-11-05T16:29:28.316Z,46.72
2022-11-05T16:31:59.590Z,46.43
2022-11-05T16:34:42.628Z,46.63
2022-11-05T16:37:17.068Z,46.59
2022-11-05T16:39:45.513Z,46.75
2022-11-05T16:42:23.027Z,46.58
2022-11-05T16:44:53.478Z,46.74
2022-11-05T16:47:23.002Z,46.65
2022-11-05T16:49:51.670Z,46.59
2022-11-05T16:52:20.107Z,46.94
2022-11-05T16:54:48.458Z,46.89
2022-11-05T16:57:22.947Z,46.98
2022-11-05T16:59:52.071Z,46.97
2022-11-05T17:02:20.635Z,47.33
2022-11-05T17:04:49.235Z,47.34
2022-11-05T17:07:17.761Z,47.51
2022-11-05T17:09:46.213Z,47.41
2022-11-05T17:12:15.717Z,47.26
2022-11-05T17:14:44.127Z,47.99
2022-11-05T17:17:12.545Z,49.00
2022-11-05T17:19:42.387Z,48.05
2022-11-05T17:22:11.926Z,47.88
2022-11-05T17:24:40.380Z,47.88
2022-11-05T17:27:09.818Z,47.73
2022-11-05T17:29:38.301Z,48.00
2022-11-05T17:32:07.016Z,48.50
2022-11-05T17:34:35.447Z,48.35
2022-11-05T17:37:05.068Z,48.73
2022-11-05T17:39:33.452Z,48.94
2022-11-05T17:42:02.215Z,48.33
2022-11-05T17:44:30.611Z,48.06
2022-11-05T17:46:59.044Z,47.93
2022-11-05T17:49:28.532Z,48.25
2022-11-05T17:51:56.965Z,47.92
2022-11-05T17:54:25.470Z,48.00
2022-11-05T17:56:53.976Z,47.96
2022-11-05T17:59:22.357Z,48.60
2022-11-05T18:01:50.916Z,48.16
2022-11-05T18:04:19.534Z,48.21
2022-11-05T18:06:48.181Z,48.02
2022-11-05T18:09:16.554Z,48.45
2022-11-05T18:11:45.066Z,47.65
2022-11-05T18:14:13.510Z,47.97
2022-11-05T18:16:41.875Z,47.88
2022-11-05T18:19:10.279Z,48.12
2022-11-05T18:21:38.735Z,48.28
2022-11-05T18:24:08.095Z,48.21
2022-11-05T18:26:36.467Z,48.29
2022-11-05T18:29:05.428Z,48.42
2022-11-05T18:31:33.819Z,48.23
2022-11-05T18:34:02.192Z,48.01
2022-11-05T18:36:32.448Z,47.95
2022-11-05T18:39:03.225Z,48.17
2022-11-05T18:41:31.826Z,48.02
2022-11-05T18:44:02.003Z,48.07
2022-11-05T18:46:58.837Z,48.73
2022-11-05T18:49:20.129Z,48.53
2022-11-05T18:51:48.567Z,48.27
2022-11-05T18:54:16.937Z,48.09
2022-11-05T18:56:45.631Z,47.75
2022-11-05T19:02:06.384Z,47.90
2022-11-05T19:04:36.224Z,47.76
2022-11-05T19:07:05.989Z,47.97
2022-11-05T19:09:34.751Z,47.76
2022-11-05T19:12:04.167Z,48.01
2022-11-05T19:14:33.303Z,47.81
2022-11-05T19:17:02.122Z,47.89
2022-11-05T19:19:30.705Z,48.01
2022-11-05T19:21:59.318Z,47.79
2022-11-05T19:24:27.680Z,47.78
2022-11-05T19:26:56.451Z,48.30
2022-11-05T19:29:24.802Z,48.47
2022-11-05T19:31:53.203Z,48.77
2022-11-05T19:34:21.670Z,48.49
2022-11-05T19:36:50.073Z,48.23
2022-11-05T19:39:18.495Z,48.91
2022-11-05T19:41:49.081Z,48.95
2022-11-05T19:44:18.450Z,49.03
2022-11-05T19:46:46.825Z,49.09
2022-11-05T19:49:15.269Z,48.99
2022-11-05T19:51:43.954Z,48.85
2022-11-05T19:54:12.363Z,49.13
2022-11-05T19:56:40.708Z,48.86
2022-11-05T19:59:11.621Z,48.74
2022-11-05T20:01:40.123Z,49.06
2022-11-05T20:04:09.691Z,49.71
2022-11-05T20:06:40.052Z,49.69
2022-11-05T20:09:27.390Z,49.45
2022-11-05T20:11:58.803Z,49.25
2022-11-05T20:14:27.489Z,50.25
2022-11-05T20:16:56.076Z,50.65
2022-11-05T20:19:24.465Z,50.10
2022-11-05T20:21:53.022Z,49.73
2022-11-05T20:24:24.670Z,49.87
2022-11-05T20:26:54.870Z,49.83
2022-11-05T20:29:26.047Z,50.03
2022-11-05T20:31:57.876Z,49.81
2022-11-05T20:34:28.838Z,50.81
2022-11-05T20:36:57.225Z,50.25
2022-11-05T20:39:25.789Z,50.36
2022-11-05T20:41:56.359Z,49.82
2022-11-05T20:44:24.711Z,50.07
2022-11-05T20:46:53.130Z,49.76
2022-11-05T20:49:25.419Z,49.98
2022-11-05T20:51:54.708Z,49.59
2022-11-05T20:54:23.516Z,51.18
2022-11-05T20:56:52.874Z,50.40
2022-11-05T20:59:21.347Z,50.53
2022-11-05T21:01:51.894Z,51.90
2022-11-05T21:04:20.353Z,50.99
2022-11-05T21:06:48.742Z,50.14
2022-11-05T21:09:17.350Z,50.81
2022-11-05T21:12:05.141Z,50.15
2022-11-05T21:14:33.538Z,50.02
2022-11-05T21:17:02.308Z,50.03
2022-11-05T21:19:32.288Z,49.87
2022-11-05T21:22:01.569Z,50.31
2022-11-05T21:24:30.060Z,50.25
2022-11-05T21:26:59.032Z,50.51
2022-11-05T21:29:27.616Z,50.68
2022-11-05T21:31:55.947Z,50.26
2022-11-05T21:34:24.607Z,50.03
2022-11-05T21:36:53.251Z,50.33
2022-11-05T21:39:25.609Z,50.38
2022-11-05T21:41:57.516Z,50.59
2022-11-05T21:44:26.012Z,50.44
2022-11-05T21:46:56.985Z,49.96
2022-11-05T21:49:25.842Z,50.21
2022-11-05T21:52:12.895Z,50.78
2022-11-05T21:54:59.617Z,50.26
2022-11-05T21:57:46.925Z,51.66
2022-11-05T22:00:15.441Z,50.64
2022-11-05T22:02:44.014Z,50.31
2022-11-05T22:05:14.048Z,50.87
2022-11-05T22:07:42.487Z,52.01
2022-11-05T22:10:16.061Z,50.99
2022-11-05T22:12:45.180Z,51.09
2022-11-05T22:15:13.982Z,50.75
2022-11-05T22:17:46.659Z,50.87
2022-11-05T22:20:16.586Z,50.66
2022-11-05T22:22:45.351Z,51.22
2022-11-05T22:25:18.177Z,51.41
2022-11-05T22:27:46.654Z,51.27
2022-11-05T22:30:15.351Z,51.21
2022-11-05T22:32:44.064Z,51.17
2022-11-05T22:35:12.458Z,50.19
2022-11-05T22:37:40.798Z,50.29
2022-11-05T22:40:09.738Z,50.29
2022-11-05T22:42:38.366Z,50.28
2022-11-05T22:45:07.290Z,50.41
2022-11-05T22:47:36.188Z,50.24
2022-11-05T22:50:05.153Z,49.92
2022-11-05T22:52:33.689Z,49.77
2022-11-05T22:55:04.595Z,50.21
2022-11-05T22:57:33.134Z,50.11
2022-11-05T23:00:01.718Z,50.33
2022-11-05T23:02:30.261Z,50.02
2022-11-05T23:04:58.755Z,49.90
2022-11-05T23:07:45.751Z,50.47
2022-11-05T23:10:33.123Z,50.52
2022-11-05T23:13:01.504Z,51.34
2022-11-05T23:15:48.612Z,50.94
2022-11-05T23:18:35.994Z,50.29
2022-11-05T23:21:23.406Z,51.44
2022-11-05T23:24:06.791Z,51.56
2022-11-05T23:26:52.585Z,50.61
2022-11-05T23:29:24.022Z,50.87
2022-11-05T23:32:12.305Z,51.07
2022-11-05T23:34:40.670Z,50.57
2022-11-05T23:37:28.144Z,50.30
2022-11-05T23:39:56.579Z,50.41
2022-11-05T23:42:43.606Z,50.51
2022-11-05T23:45:30.971Z,50.63
2022-11-05T23:48:18.846Z,51.25
2022-11-05T23:50:59.838Z,51.00
2022-11-05T23:53:30.721Z,50.92
2022-11-05T23:56:02.069Z,50.88
2022-11-05T23:58:30.531Z,51.42
